Time;durP1;ratioP1;P1;durP2;ratioP2;P2;SDS_P1;SDS_P2;PMS_P1;PMS_P2;Temp;Humidity;BMP_temperature;BMP_pressure;BME280_temperature;BME280_humidity;BME280_pressure;Samples;Min_cycle;Max_cycle;Signal;HPM_P1;HPM_P2
2021/04/22 00:01:41;;;;;;;35.90;21.90;;;;;;;11.29;62.68;100479.22;20826157;28;20057;-68
2021/04/22 00:11:42;;;;;;;43.53;23.52;;;;;;;11.17;64.08;100479.94;20833133;28;20042;-70
2021/04/22 00:21:44;;;;;;;40.55;25.00;;;;;;;10.99;67.69;100470.44;20825176;28;20049;-69
2021/04/22 00:31:45;;;;;;;40.53;26.48;;;;;;;9.79;78.88;100463.69;20822071;28;20053;-70
2021/04/22 00:41:46;;;;;;;43.50;27.73;;;;;;;9.71;79.68;100456.22;20827862;28;20046;-70
2021/04/22 00:51:47;;;;;;;42.33;27.65;;;;;;;9.70;79.93;100464.16;20813385;28;20056;-70
2021/04/22 01:01:48;;;;;;;40.97;26.48;;;;;;;9.68;77.77;100458.13;20824161;28;20045;-70
2021/04/22 01:11:49;;;;;;;40.85;25.42;;;;;;;9.59;76.66;100487.34;20813636;28;20540;-69
2021/04/22 01:21:52;;;;;;;39.92;24.98;;;;;;;9.48;76.37;100497.47;20815188;28;20045;-69
2021/04/22 01:31:53;;;;;;;41.13;25.10;;;;;;;9.40;77.13;100516.09;20819213;28;20726;-69
2021/04/22 01:41:54;;;;;;;37.83;23.30;;;;;;;9.41;77.09;100516.03;20817859;28;20108;-69
2021/04/22 01:51:55;;;;;;;38.88;23.33;;;;;;;9.30;77.37;100512.22;20818828;28;20050;-69
2021/04/22 02:01:56;;;;;;;36.45;22.55;;;;;;;9.22;77.84;100530.88;20820886;28;20417;-70
2021/04/22 02:11:57;;;;;;;38.70;21.67;;;;;;;9.09;78.41;100537.59;20823825;28;20532;-69
2021/04/22 02:21:58;;;;;;;34.97;21.08;;;;;;;8.94;78.80;100552.16;20825837;28;20119;-69
2021/04/22 02:32:00;;;;;;;35.75;21.63;;;;;;;8.83;79.36;100557.06;20837635;28;20049;-70
2021/04/22 02:42:01;;;;;;;36.22;21.23;;;;;;;8.72;79.23;100561.03;20832939;28;20515;-69
2021/04/22 02:52:13;;;;;;;34.88;19.65;;;;;;;8.58;79.71;100570.31;20827585;28;20046;-69
2021/04/22 03:02:14;;;;;;;31.25;19.05;;;;;;;8.44;79.78;100584.84;20825927;28;20053;-69
2021/04/22 03:12:15;;;;;;;27.90;16.90;;;;;;;8.23;80.99;100594.38;20823435;28;20067;-69
2021/04/22 03:22:16;;;;;;;36.03;18.17;;;;;;;8.18;80.74;100611.97;20828487;28;20457;-68
2021/04/22 03:32:16;;;;;;;31.45;16.88;;;;;;;8.00;81.21;100608.38;20807805;28;20103;-68
2021/04/22 03:42:18;;;;;;;35.45;16.00;;;;;;;7.89;81.27;100613.16;20834800;28;20042;-69
2021/04/22 03:52:19;;;;;;;34.45;14.85;;;;;;;7.69;82.07;100619.16;20826534;28;20095;-69
2021/04/22 04:02:21;;;;;;;30.02;14.90;;;;;;;7.51;82.23;100622.50;20826192;28;20049;-69
2021/04/22 04:12:22;;;;;;;29.13;14.70;;;;;;;7.35;82.72;100638.75;20834834;28;20046;-69
2021/04/22 04:22:22;;;;;;;24.70;13.23;;;;;;;7.26;82.85;100665.97;20772712;28;20041;-68
2021/04/22 04:32:23;;;;;;;22.67;11.18;;;;;;;7.19;82.17;100677.50;20804152;28;20053;-69
2021/04/22 04:42:25;;;;;;;28.88;11.48;;;;;;;7.17;80.80;100681.91;20822122;28;20128;-69
2021/04/22 04:52:26;;;;;;;23.13;9.93;;;;;;;7.12;80.01;100704.63;20821998;28;20087;-69
2021/04/22 05:02:26;;;;;;;23.00;9.30;;;;;;;7.07;79.00;100714.34;20820921;28;20128;-69
2021/04/22 05:12:27;;;;;;;19.15;7.90;;;;;;;7.03;76.83;100736.19;20829108;28;20041;-70
2021/04/22 05:22:28;;;;;;;22.17;6.90;;;;;;;6.97;75.56;100763.28;20815652;28;20049;-70
2021/04/22 05:32:29;;;;;;;30.13;7.55;;;;;;;6.80;74.66;100771.66;20818076;28;20042;-69
2021/04/22 05:42:30;;;;;;;16.30;5.63;;;;;;;6.80;72.43;100802.03;20827371;28;20038;-70
2021/04/22 05:52:31;;;;;;;16.80;5.85;;;;;;;6.74;71.74;100817.81;20813624;28;20103;-69
2021/04/22 06:02:32;;;;;;;24.45;5.55;;;;;;;6.92;70.64;100838.03;20818359;28;20084;-69
2021/04/22 06:12:33;;;;;;;20.98;5.40;;;;;;;6.93;69.67;100841.50;20820251;28;20046;-69
2021/04/22 06:22:34;;;;;;;16.17;5.75;;;;;;;7.01;68.59;100852.53;20800223;28;20049;-69
2021/04/22 06:32:36;;;;;;;16.13;4.78;;;;;;;7.23;67.24;100856.97;20808148;28;20056;-69
2021/04/22 06:42:38;;;;;;;17.20;5.35;;;;;;;7.33;66.01;100875.72;20802563;28;20460;-70
2021/04/22 06:52:40;;;;;;;13.45;4.85;;;;;;;7.77;64.52;100882.06;20799678;28;20112;-69
2021/04/22 07:02:41;;;;;;;16.95;4.78;;;;;;;7.70;63.86;100893.56;20805140;28;20053;-69
2021/04/22 07:12:42;;;;;;;18.10;4.75;;;;;;;7.89;61.71;100901.59;20814051;28;20421;-69
2021/04/22 07:22:44;;;;;;;14.55;3.95;;;;;;;7.82;62.59;100926.19;20810533;28;20116;-70
2021/04/22 07:32:45;;;;;;;14.52;3.95;;;;;;;7.90;61.02;100939.78;20846446;28;20108;-70
2021/04/22 07:42:47;;;;;;;17.40;4.45;;;;;;;8.03;58.50;100957.56;20845888;28;20382;-70
2021/04/22 07:52:49;;;;;;;17.50;4.60;;;;;;;8.24;57.37;100955.09;20829168;28;20453;-70
2021/04/22 08:02:51;;;;;;;15.13;3.97;;;;;;;8.54;56.79;100949.66;20861983;28;20119;-70
2021/04/22 08:12:53;;;;;;;14.55;4.50;;;;;;;8.15;57.56;100969.31;20846557;28;20429;-70
2021/04/22 08:22:59;;;;;;;17.42;4.57;;;;;;;8.05;54.55;100968.78;20840963;28;20049;-70
2021/04/22 08:33:02;;;;;;;21.70;4.93;;;;;;;8.41;53.75;100963.22;20833613;28;20444;-71
2021/04/22 08:43:04;;;;;;;14.43;4.32;;;;;;;8.56;52.83;100965.25;20825129;28;20053;-71
2021/04/22 08:53:12;;;;;;;15.30;4.30;;;;;;;8.73;50.61;100980.28;20820545;28;20037;-71
2021/04/22 09:03:18;;;;;;;17.58;4.00;;;;;;;9.11;48.90;100982.28;20800201;28;20152;-71
2021/04/22 09:13:19;;;;;;;17.88;4.30;;;;;;;8.88;49.36;100984.94;20804369;28;20041;-71
2021/04/22 09:23:26;;;;;;;20.27;3.85;;;;;;;9.42;46.78;100997.59;20798999;28;20042;-71
2021/04/22 09:33:33;;;;;;;16.75;3.88;;;;;;;9.51;45.73;100988.53;20797079;28;20138;-71
2021/04/22 09:43:34;;;;;;;15.35;3.53;;;;;;;9.90;44.93;100992.16;20826811;28;20046;-71
2021/04/22 09:53:35;;;;;;;17.88;4.60;;;;;;;9.56;45.24;100983.97;20809575;28;20056;-71
2021/04/22 10:03:36;;;;;;;17.80;3.67;;;;;;;10.43;44.19;100989.00;20813112;28;20053;-71
2021/04/22 10:13:48;;;;;;;14.52;3.80;;;;;;;10.24;41.97;100987.19;20829608;28;20465;-71
2021/04/22 10:24:02;;;;;;;12.65;3.70;;;;;;;10.54;40.42;100989.38;20788277;28;20136;-70
2021/04/22 10:34:03;;;;;;;15.63;4.35;;;;;;;10.34;41.94;100984.19;20807524;28;20449;-72
2021/04/22 10:44:05;;;;;;;18.52;4.97;;;;;;;10.77;40.11;100983.13;20818905;28;20061;-71
2021/04/22 10:54:06;;;;;;;17.02;4.95;;;;;;;11.30;39.23;100976.22;20813800;28;20054;-72
2021/04/22 11:04:09;;;;;;;16.60;4.20;;;;;;;10.84;38.24;100972.28;20829634;28;20049;-72
2021/04/22 11:14:14;;;;;;;14.75;4.32;;;;;;;11.00;36.98;100959.31;20836118;28;20045;-71
2021/04/22 11:24:29;;;;;;;12.30;4.55;;;;;;;11.34;37.13;100961.19;20828634;28;20136;-71
2021/04/22 11:34:35;;;;;;;15.02;4.50;;;;;;;11.19;36.05;100964.53;20862830;28;20049;-71
2021/04/22 11:44:49;;;;;;;10.10;4.18;;;;;;;11.75;32.84;100960.03;20825780;28;20053;-71
2021/04/22 11:54:50;;;;;;;12.23;4.25;;;;;;;11.82;35.08;100950.09;20817247;28;20061;-71
2021/04/22 12:04:51;;;;;;;12.57;3.35;;;;;;;12.04;32.85;100952.47;20838905;28;20053;-71
2021/04/22 12:14:58;;;;;;;11.63;3.63;;;;;;;12.04;32.01;100952.47;20852208;28;20046;-71
2021/04/22 12:25:02;;;;;;;17.00;4.03;;;;;;;12.40;31.66;100945.28;20833396;28;20042;-71
2021/04/22 12:35:04;;;;;;;11.38;4.10;;;;;;;12.25;31.56;100944.31;20830069;28;20054;-71
2021/04/22 12:45:14;;;;;;;9.55;3.00;;;;;;;12.62;32.37;100937.09;20840327;28;20111;-71
2021/04/22 12:55:18;;;;;;;11.57;3.10;;;;;;;12.50;30.41;100941.22;20804406;28;20049;-70
2021/04/22 13:05:20;;;;;;;12.47;3.37;;;;;;;12.55;31.41;100931.34;20817994;28;20049;-70
2021/04/22 13:15:21;;;;;;;9.32;3.13;;;;;;;12.82;29.19;100929.84;20836772;28;20108;-70
2021/04/22 13:25:32;;;;;;;13.48;3.42;;;;;;;12.95;28.61;100909.00;20812534;28;20558;-69
2021/04/22 13:35:33;;;;;;;11.23;3.47;;;;;;;12.99;28.78;100913.16;20818306;28;20081;-70
2021/04/22 13:45:35;;;;;;;14.88;3.92;;;;;;;12.86;31.41;100904.25;20824983;28;20516;-70
2021/04/22 13:55:51;;;;;;;14.48;3.92;;;;;;;13.27;28.87;100904.56;20819590;28;20103;-69
2021/04/22 14:05:52;;;;;;;14.73;3.55;;;;;;;13.51;28.27;100892.63;20839089;28;20077;-69
2021/04/22 14:15:54;;;;;;;8.57;3.28;;;;;;;13.18;29.81;100882.28;20824842;28;20045;-69
2021/04/22 14:25:55;;;;;;;8.55;3.35;;;;;;;13.40;28.62;100895.06;20846345;28;20060;-69
2021/04/22 14:35:56;;;;;;;14.55;4.50;;;;;;;13.41;30.42;100869.59;20833517;28;20053;-69
2021/04/22 14:45:58;;;;;;;14.80;3.85;;;;;;;13.40;28.79;100868.75;20830442;28;20069;-69
2021/04/22 14:55:59;;;;;;;14.10;4.15;;;;;;;13.81;30.75;100878.63;20826429;28;20083;-69
2021/04/22 15:06:00;;;;;;;14.95;4.43;;;;;;;13.88;31.14;100882.56;20842036;28;20236;-69
2021/04/22 15:16:02;;;;;;;10.98;3.83;;;;;;;13.94;30.59;100885.69;20809840;28;20057;-69
2021/04/22 15:26:05;;;;;;;9.88;3.92;;;;;;;14.05;29.82;100877.97;20822634;28;20163;-70
2021/04/22 15:36:06;;;;;;;11.35;3.45;;;;;;;13.99;29.18;100880.97;20814295;28;20045;-69
2021/04/22 15:46:07;;;;;;;10.90;3.22;;;;;;;13.96;27.26;100869.81;20830945;28;20493;-70
2021/04/22 15:56:08;;;;;;;8.55;3.03;;;;;;;14.13;28.17;100877.50;20811932;28;20049;-69
2021/04/22 16:06:09;;;;;;;16.85;3.90;;;;;;;14.06;28.25;100879.69;20809698;28;20049;-69
2021/04/22 16:16:12;;;;;;;13.30;3.85;;;;;;;13.91;29.92;100874.50;20829200;28;20092;-73
2021/04/22 16:26:13;;;;;;;11.40;3.72;;;;;;;13.87;28.29;100880.84;20801919;28;20051;-71
2021/04/22 16:36:17;;;;;;;9.10;3.13;;;;;;;14.06;28.34;100894.63;20807883;28;20044;-69
2021/04/22 16:46:18;;;;;;;13.48;3.20;;;;;;;13.97;27.90;100890.75;20840750;28;20110;-69
2021/04/22 16:56:19;;;;;;;10.40;3.33;;;;;;;13.90;29.45;100901.75;20827754;28;20196;-70
2021/04/22 17:06:20;;;;;;;9.05;3.10;;;;;;;13.85;28.14;100895.91;20803299;28;20057;-70
2021/04/22 17:16:21;;;;;;;10.55;2.95;;;;;;;13.84;28.37;100905.59;20786734;28;20053;-70
2021/04/22 17:26:24;;;;;;;12.02;3.25;;;;;;;13.61;29.67;100899.03;20782685;28;20049;-70
2021/04/22 17:36:25;;;;;;;10.07;3.08;;;;;;;13.39;30.29;100903.88;20803937;28;20124;-69
2021/04/22 17:46:26;;;;;;;11.80;3.55;;;;;;;13.27;29.38;100900.16;20812150;28;20046;-69
2021/04/22 17:56:47;;;;;;;16.45;4.00;;;;;;;13.03;30.76;100905.94;20793279;28;20137;-70
2021/04/22 18:06:48;;;;;;;9.55;3.47;;;;;;;12.57;31.57;100918.97;20806703;28;20045;-69
2021/04/22 18:16:49;;;;;;;11.95;3.00;;;;;;;12.19;32.63;100915.75;20825934;28;20061;-70
2021/04/22 18:26:51;;;;;;;11.32;2.97;;;;;;;11.89;33.10;100931.31;20805846;28;20132;-69
2021/04/22 18:36:53;;;;;;;14.88;3.95;;;;;;;11.73;32.80;100940.91;20810289;28;20072;-69
2021/04/22 18:46:55;;;;;;;16.17;3.58;;;;;;;11.46;33.82;100943.09;20835750;28;20057;-70
2021/04/22 18:56:56;;;;;;;10.70;3.35;;;;;;;11.14;35.00;100955.13;20815441;28;20128;-70
2021/04/22 19:06:57;;;;;;;14.85;4.40;;;;;;;10.89;35.94;100967.69;20816561;28;20096;-69
2021/04/22 19:16:58;;;;;;;13.07;3.10;;;;;;;10.61;36.75;100982.97;20827179;28;20053;-70
2021/04/22 19:27:00;;;;;;;12.15;3.95;;;;;;;10.38;37.91;101011.91;20819857;28;20045;-69
2021/04/22 19:37:01;;;;;;;10.20;3.63;;;;;;;9.77;41.83;101022.31;20820540;28;20052;-70
2021/04/22 19:47:02;;;;;;;10.23;3.90;;;;;;;9.38;43.12;101037.84;20823324;28;20133;-69
2021/04/22 19:57:03;;;;;;;11.60;3.67;;;;;;;9.12;43.03;101046.66;20797825;28;20088;-69
2021/04/22 20:07:04;;;;;;;13.98;4.32;;;;;;;9.43;42.35;101051.56;20798607;28;20049;-69
2021/04/22 20:17:05;;;;;;;13.65;3.38;;;;;;;9.54;42.60;101057.22;20798241;28;20050;-69
2021/04/22 20:27:07;;;;;;;10.05;3.17;;;;;;;9.28;44.07;101076.53;20788636;28;20045;-69
2021/04/22 20:37:08;;;;;;;16.95;3.85;;;;;;;8.91;45.45;101068.34;20816670;28;20096;-70
2021/04/22 20:47:09;;;;;;;10.50;3.55;;;;;;;8.74;46.78;101079.38;20867113;28;20107;-71
2021/04/22 20:57:11;;;;;;;11.15;3.40;;;;;;;8.64;47.87;101067.56;20896109;28;20053;-71
2021/04/22 21:07:12;;;;;;;13.32;3.42;;;;;;;8.55;48.36;101073.97;20884214;28;20472;-70
2021/04/22 21:17:14;;;;;;;13.48;4.03;;;;;;;8.40;49.37;101082.34;20827624;28;20053;-71
2021/04/22 21:27:16;;;;;;;12.60;3.70;;;;;;;8.27;50.89;101082.78;20794143;28;20073;-70
2021/04/22 21:37:17;;;;;;;13.10;3.90;;;;;;;8.12;51.41;101091.97;20869833;28;20091;-72
2021/04/22 21:47:19;;;;;;;12.65;4.90;;;;;;;8.13;51.59;101096.25;20965288;28;20061;-71
2021/04/22 21:57:25;;;;;;;17.35;4.07;;;;;;;8.05;52.39;101100.88;20977116;28;20857;-70
2021/04/22 22:07:26;;;;;;;11.27;4.10;;;;;;;7.85;53.00;101098.94;20894577;28;20041;-72
2021/04/22 22:17:27;;;;;;;20.38;5.10;;;;;;;7.86;53.19;101098.03;20911393;28;20159;-72
2021/04/22 22:27:28;;;;;;;20.33;4.70;;;;;;;7.68;54.22;101103.81;20914630;28;20420;-71
2021/04/22 22:37:29;;;;;;;17.92;5.30;;;;;;;7.49;55.03;101108.72;20913980;28;20083;-71
2021/04/22 22:47:30;;;;;;;15.23;5.38;;;;;;;7.40;55.66;101109.03;20985570;28;20413;-71
2021/04/22 22:57:31;;;;;;;15.57;5.25;;;;;;;7.29;55.65;101108.47;20995567;28;20049;-70
2021/04/22 23:07:32;;;;;;;13.80;4.93;;;;;;;7.25;56.11;101122.50;20980912;28;20108;-71
2021/04/22 23:17:33;;;;;;;17.38;5.07;;;;;;;7.06;56.99;101137.75;20976433;28;20041;-71
2021/04/22 23:27:35;;;;;;;16.77;5.00;;;;;;;6.89;57.62;101132.19;20972716;28;20069;-69
2021/04/22 23:37:36;;;;;;;12.88;4.57;;;;;;;6.57;59.41;101133.03;20937848;28;20052;-70
2021/04/22 23:47:37;;;;;;;18.98;5.22;;;;;;;6.53;59.91;101126.22;20909961;28;20049;-71
2021/04/22 23:57:39;;;;;;;20.08;5.40;;;;;;;6.33;60.99;101133.66;20932072;28;20048;-70
